L'gov, Russia
Current Conditions -  °F | °C
As of 1:00 PM on Wednesday 26 Nov 2014 (Local Time) from UUOK Reporting Station
Overcast Overcast  
Wind Chill: 13°   Ceiling: 1000
Heat Index: 19°   Visibility: 6mi
Dew Point: 10°   Wind: 4mph
Humidity: 68%   Direction: 110°ESE
Pressure: 30.5"   Gusts: NA
Location:  51.65°N, 35.28°E
Report Text: UUOK 261000Z 11002MPS 9999 OVC010 M07/M12 Q1033 NOSIG RMK12CLRD70
Loading
Personal Weather Stations






























Interactive Weather Map New forecast layout! Learn more

10-Day Weather Forecast

Advertisements
Track Severe Weather on mobile